Latest Weather Observations for Nerriga

IDN60801

Issued at 11:12 pm EDT Friday 15 November 2019 (issued every 10 minutes, with the page automatically refreshed every 10 minutes)

About weather observations | Map of weather stations | Latest weather observations for NSW | Other Formats
Station Details ID: 069128 Name: NERRIGA AWS Lat: -35.11 Lon: 150.08 Height: 622.0 m
Data from the previous 72 hours. | See also: Recent months at Nerriga
Date/Time
EDT
Temp
°C
App
Temp
°C
Dew
Point
°C
Rel
Hum
%
Delta-T
°C
Wind Press
QNH
hPa
Press
MSL
hPa
Rain since
9am
mm
Dir  Spd
km/h
Gust
km/h
Spd
kts
Gust
kts
15/11:00pm 12.8 10.7 6.6 66 3.1 W 7 11 4 6 1013.3 1011.8 0.0
15/10:30pm 16.1 12.9 -0.2 33 7.2 W 6 13 3 7 1013.1 1011.5 0.0
15/10:00pm 17.0 12.3 -2.1 27 8.2 WNW 13 20 7 11 1012.9 1011.3 0.0
15/09:30pm 17.9 12.7 -2.9 24 8.8 WNW 15 24 8 13 1012.5 1010.9 0.0
15/09:00pm 18.5 12.4 -3.6 22 9.3 WNW 19 24 10 13 1011.9 1010.3 0.0
15/08:30pm 19.3 12.5 -4.9 19 10.0 W 22 33 12 18 1011.4 1009.8 0.0
15/08:00pm 20.0 12.8 -5.0 18 10.4 W 24 35 13 19 1011.0 1009.4 0.0
15/07:30pm 20.9 13.4 -5.0 17 10.8 WNW 26 39 14 21 1010.3 1008.6 0.0
15/07:00pm 22.2 14.7 -4.8 16 11.5 WNW 26 41 14 22 1009.6 1008.0 0.0
15/06:30pm 22.9 13.8 -3.4 17 11.5 WNW 35 44 19 24 1009.0 1007.4 0.0
15/06:23pm 22.9 13.3 -4.2 16 11.7 WNW 37 56 20 30 1009.0 1007.4 0.0
15/06:00pm 23.7 13.7 -4.4 15 12.2 W 39 56 21 30 1008.7 1007.0 0.0
15/05:31pm 24.0 13.4 -7.1 12 12.8 W 41 59 22 32 1008.5 1006.8 0.0
15/05:30pm 23.9 13.4 -6.2 13 12.6 W 41 57 22 31 1008.3 1006.7 0.0
15/05:00pm 25.0 14.4 -7.5 11 13.5 W 41 61 22 33 1008.0 1006.4 0.0
15/04:31pm 24.9 15.3 -4.4 14 12.8 WNW 37 56 20 30 1007.9 1006.3 0.0
15/04:30pm 25.1 15.1 -5.2 13 13.1 WNW 39 54 21 29 1008.0 1006.4 0.0
15/04:00pm 25.9 16.3 -1.8 16 12.9 WNW 39 59 21 32 1007.9 1006.3 0.0
15/03:53pm 26.3 17.0 -2.4 15 13.2 W 37 56 20 30 1008.0 1006.4 0.0
15/03:30pm 26.9 16.8 -2.8 14 13.6 WNW 41 59 22 32 1007.8 1006.2 0.0
15/03:28pm 26.6 16.0 -3.1 14 13.5 W 43 59 23 32 1007.7 1006.1 0.0
15/03:00pm 25.8 15.2 -1.9 16 12.8 NW 44 69 24 37 1007.9 1006.3 0.0
15/02:57pm 26.1 15.6 -2.5 15 13.1 WNW 43 69 23 37 1007.8 1006.2 0.0
15/02:55pm 25.4 15.3 -2.2 16 12.6 WNW 41 69 22 37 1007.4 1005.7 0.0
15/02:42pm 26.1 16.0 -2.5 15 13.1 WNW 41 56 22 30 1008.1 1006.5 0.0
15/02:41pm 26.1 16.1 -1.7 16 12.9 WNW 41 56 22 30 1008.1 1006.5 0.0
15/02:31pm 25.3 15.1 -3.2 15 12.8 WNW 41 67 22 36 1007.9 1006.3 0.0
15/02:30pm 25.8 15.7 -2.8 15 13.0 WNW 41 54 22 29 1008.1 1006.5 0.0
15/02:00pm 24.7 13.5 -0.4 19 11.8 NW 48 69 26 37 1008.2 1006.6 0.0
15/01:55pm 24.8 14.4 -0.4 19 11.9 NW 44 65 24 35 1008.1 1006.5 0.0
15/01:50pm 25.4 15.5 -0.6 18 12.3 WNW 41 57 22 31 1008.3 1006.7 0.0
15/01:41pm 24.4 13.7 -3.0 16 12.3 WNW 44 59 24 32 1008.5 1006.8 0.0
15/01:35pm 24.9 15.3 -1.8 17 12.3 WNW 39 59 21 32 1008.5 1006.8 0.0
15/01:32pm 24.3 15.5 -1.5 18 11.9 WNW 35 57 19 31 1008.5 1006.8 0.0
15/01:30pm 24.7 15.9 -1.2 18 12.0 WNW 35 54 19 29 1008.7 1007.0 0.0
15/01:29pm 24.9 16.1 -1.0 18 12.1 NW 35 54 19 29 1008.7 1007.0 0.0
15/01:26pm 24.7 16.4 -0.4 19 11.8 WNW 33 54 18 29 1008.6 1006.9 0.0
15/01:00pm 24.0 14.5 -1.0 19 11.6 WNW 39 67 21 36 1009.1 1007.5 0.0
15/12:34pm 22.2 13.2 0.1 23 10.3 WNW 37 59 20 32 1009.4 1007.8 0.0
15/12:30pm 22.1 13.8 0.0 23 10.3 W 33 48 18 26 1009.5 1007.9 0.0
15/12:02pm 21.8 12.2 -1.5 21 10.5 WNW 39 57 21 31 1009.5 1007.9 0.0
15/12:00pm 21.9 12.7 -1.4 21 10.5 WNW 37 54 20 29 1009.5 1007.9 0.0
15/11:30am 21.9 12.6 0.4 24 10.1 WNW 39 57 21 31 1010.0 1008.4 0.0
15/11:00am 21.4 11.7 0.6 25 9.7 W 41 59 22 32 1010.0 1008.4 0.0
15/10:30am 19.4 9.3 1.4 30 8.4 WNW 44 63 24 34 1010.3 1008.6 0.0
15/10:00am 18.1 10.2 2.4 35 7.4 WNW 33 56 18 30 1010.9 1009.3 0.0
15/09:37am 17.8 9.9 2.5 36 7.2 WNW 33 52 18 28 1011.3 1009.7 0.0
15/09:30am 17.8 9.6 2.5 36 7.2 WNW 35 50 19 27 1011.2 1009.6 0.0
15/09:00am 18.1 9.8 2.4 35 7.4 W 35 56 19 30 1011.4 1009.8 0.0
15/08:30am 17.5 9.2 1.9 35 7.3 WNW 35 56 19 30 1011.1 1009.5 0.0
15/08:28am 17.6 9.7 2.4 36 7.2 WNW 33 48 18 26 1011.2 1009.6 0.0
15/08:00am 16.6 11.5 4.3 44 6.0 NW 20 28 11 15 1011.4 1009.8 0.0
15/07:30am 15.7 10.9 4.4 47 5.5 WNW 19 32 10 17 1011.4 1009.8 0.0
15/07:00am 14.4 10.0 4.7 52 4.7 NW 17 24 9 13 1011.2 1009.6 0.0
15/06:30am 13.6 9.5 4.5 54 4.3 WNW 15 22 8 12 1011.1 1009.5 0.0
15/06:00am 13.3 8.9 4.5 55 4.2 WNW 17 30 9 16 1010.7 1009.1 0.0
15/05:30am 12.5 10.4 4.0 56 4.0 WNW 4 7 2 4 1010.8 1009.2 0.0
15/05:00am 12.7 9.7 4.2 56 4.0 WNW 9 13 5 7 1010.9 1009.3 0.0
15/04:30am 12.6 9.9 3.6 54 4.2 WNW 7 13 4 7 1010.8 1009.2 0.0
15/04:00am 14.0 11.4 4.0 51 4.7 WNW 7 13 4 7 1011.0 1009.4 0.0
15/03:30am 13.4 9.9 3.5 51 4.6 WNW 11 15 6 8 1011.1 1009.5 0.0
15/03:00am 13.9 9.3 3.7 50 4.8 WNW 17 22 9 12 1011.3 1009.7 0.0
15/02:30am 13.8 9.2 3.6 50 4.8 WNW 17 20 9 11 1011.5 1009.9 0.0
15/02:00am 14.0 9.8 3.8 50 4.8 WNW 15 22 8 12 1011.9 1010.3 0.0
15/01:30am 13.5 9.7 3.8 52 4.6 WNW 13 17 7 9 1012.3 1010.7 0.0
15/01:00am 14.5 11.9 4.2 50 4.9 WNW 7 11 4 6 1012.8 1011.2 0.0
15/12:30am 14.8 11.4 4.2 49 5.1 WNW 11 15 6 8 1013.1 1011.5 0.0
15/12:00am 14.6 10.5 4.3 50 4.9 WNW 15 19 8 10 1013.4 1011.9 0.0
 
Date/Time
EDT
Temp
°C
App
Temp
°C
Dew
Point
°C
Rel
Hum
%
Delta-T
°C
Wind Press
QNH
hPa
Press
MSL
hPa
Rain since
9am
mm
Dir  Spd
km/h
Gust
km/h
Spd
kts
Gust
kts
14/11:30pm 14.8 11.1 4.2 49 5.1 W 13 17 7 9 1013.6 1012.0 0.0
14/11:00pm 15.5 12.2 4.3 47 5.4 W 11 17 6 9 1013.9 1012.3 0.0
14/10:30pm 16.0 13.4 4.1 45 5.7 WNW 7 11 4 6 1013.9 1012.3 0.0
14/10:00pm 16.1 12.3 3.9 44 5.9 WNW 13 17 7 9 1013.9 1012.3 0.0
14/09:30pm 17.3 13.9 3.9 41 6.5 W 11 17 6 9 1013.9 1012.3 0.0
14/09:00pm 17.3 13.7 3.2 39 6.7 WNW 11 24 6 13 1013.7 1012.1 0.0
14/08:30pm 18.3 13.6 3.0 36 7.3 WNW 17 28 9 15 1013.0 1011.4 0.0
14/08:00pm 18.6 13.2 2.4 34 7.7 WNW 20 30 11 16 1012.7 1011.1 0.0
14/07:30pm 18.9 13.6 1.9 32 8.0 WNW 19 28 10 15 1012.6 1011.0 0.0
14/07:00pm 20.5 14.6 1.9 29 8.9 WNW 22 39 12 21 1012.3 1010.7 0.0
14/06:30pm 21.2 12.7 1.0 26 9.5 WNW 35 50 19 27 1011.6 1010.0 0.0
14/06:21pm 21.7 13.8 0.8 25 9.8 W 32 50 17 27 1011.4 1009.8 0.0
14/06:00pm 22.1 14.2 1.2 25 10.0 W 32 46 17 25 1011.1 1009.5 0.0
14/05:30pm 23.0 15.6 1.9 25 10.2 WNW 30 48 16 26 1011.2 1009.6 0.0
14/05:27pm 23.0 15.2 1.9 25 10.2 WNW 32 48 17 26 1011.2 1009.6 0.0
14/05:20pm 22.8 14.4 1.8 25 10.2 NW 35 50 19 27 1011.0 1009.4 0.0
14/05:00pm 23.3 15.3 1.6 24 10.5 W 33 46 18 25 1011.0 1009.4 0.0
14/04:42pm 23.5 15.0 1.2 23 10.7 WNW 35 56 19 30 1011.0 1009.4 0.0
14/04:38pm 23.6 15.5 1.3 23 10.7 WNW 33 46 18 25 1011.1 1009.5 0.0
14/04:30pm 24.5 17.0 1.4 22 11.2 NW 30 48 16 26 1011.1 1009.5 0.0
14/04:00pm 24.5 16.6 2.0 23 11.1 WNW 33 52 18 28 1011.4 1009.8 0.0
14/03:35pm 23.7 15.7 1.4 23 10.8 WNW 33 44 18 24 1011.5 1009.9 0.0
14/03:30pm 24.3 16.5 1.9 23 11.0 NW 32 44 17 24 1011.6 1010.0 0.0
14/03:00pm 22.8 14.1 1.8 25 10.2 WNW 37 59 20 32 1012.1 1010.5 0.0
14/02:41pm 23.9 16.3 2.7 25 10.5 WNW 32 52 17 28 1012.1 1010.5 0.0
14/02:30pm 23.0 14.6 1.4 24 10.4 WNW 35 46 19 25 1012.4 1010.8 0.0
14/02:00pm 23.5 16.0 1.2 23 10.7 WNW 30 46 16 25 1012.5 1010.9 0.0
14/01:30pm 22.1 14.1 1.7 26 9.8 NW 33 44 18 24 1013.0 1011.4 0.0
14/01:00pm 22.3 15.7 1.9 26 9.8 WNW 26 41 14 22 1013.6 1012.0 0.0
14/12:40pm 22.0 14.6 1.6 26 9.8 WNW 30 50 16 27 1013.8 1012.2 0.0
14/12:30pm 21.6 14.8 0.8 25 9.8 W 26 39 14 21 1014.0 1012.4 0.0
14/12:00pm 22.1 16.0 2.8 28 9.5 NW 24 41 13 22 1014.3 1012.7 0.0
14/11:30am 21.4 15.1 1.7 27 9.4 WNW 24 39 13 21 1014.6 1013.1 0.0
14/11:00am 20.0 14.4 1.0 28 8.9 WNW 20 32 11 17 1014.9 1013.4 0.0
14/10:30am 19.0 14.4 1.5 31 8.2 WNW 15 28 8 15 1015.4 1013.8 0.0
14/10:00am 18.1 13.4 1.2 32 7.8 WNW 15 28 8 15 1015.7 1014.1 0.0
14/09:30am 17.2 12.7 2.4 37 6.9 W 15 22 8 12 1015.9 1014.3 0.0
14/09:00am 15.3 10.0 1.8 40 6.2 WNW 19 28 10 15 1016.2 1014.7 0.0
14/08:30am 14.3 9.8 1.9 43 5.6 WNW 15 24 8 13 1016.0 1014.5 0.0
14/08:00am 12.7 8.0 0.8 44 5.2 WNW 15 22 8 12 1016.1 1014.6 0.0
14/07:30am 11.0 8.3 0.1 47 4.6 WNW 4 6 2 3 1015.9 1014.3 0.0
14/07:00am 9.5 7.7 1.2 56 3.5 CALM 0 4 0 2 1015.6 1014.0 0.0
14/06:30am 6.4 4.4 -0.1 63 2.6 CALM 0 0 0 0 1015.4 1013.8 0.0
14/06:00am 4.7 2.6 -0.9 67 2.2 CALM 0 0 0 0 1015.4 1013.8 0.0
14/05:30am 6.5 4.5 -0.2 62 2.7 CALM 0 0 0 0 1014.8 1013.3 0.0
14/05:00am 5.7 2.5 -0.4 65 2.4 WNW 6 7 3 4 1014.6 1013.1 0.0
14/04:30am 8.5 5.2 0.0 55 3.5 WNW 7 13 4 7 1014.5 1012.9 0.0
14/04:00am 6.1 2.7 -2.0 56 3.1 WNW 6 7 3 4 1014.7 1013.2 0.0
14/03:30am 7.7 3.9 -0.8 55 3.4 WNW 9 13 5 7 1014.6 1013.1 0.0
14/03:00am 9.5 6.7 -0.7 49 4.2 WNW 4 6 2 3 1014.6 1013.1 0.0
14/02:30am 9.8 6.3 -1.0 47 4.4 WNW 7 11 4 6 1014.6 1013.1 0.0
14/02:00am 9.2 7.0 -1.2 48 4.2 CALM 0 0 0 0 1014.7 1013.2 0.0
14/01:30am 10.5 7.2 -1.2 44 4.8 WNW 6 9 3 5 1015.0 1013.5 0.0
14/01:00am 11.0 7.7 -1.4 42 5.1 WNW 6 9 3 5 1015.3 1013.7 0.0
14/12:30am 11.6 6.9 -1.5 40 5.4 W 13 19 7 10 1015.5 1013.9 0.0
14/12:00am 11.7 8.1 -1.8 39 5.5 NW 7 13 4 7 1015.4 1013.8 0.0
 
Date/Time
EDT
Temp
°C
App
Temp
°C
Dew
Point
°C
Rel
Hum
%
Delta-T
°C
Wind Press
QNH
hPa
Press
MSL
hPa
Rain since
9am
mm
Dir  Spd
km/h
Gust
km/h
Spd
kts
Gust
kts
13/11:30pm 12.4 6.9 -1.9 37 5.9 WNW 17 24 9 13 1015.1 1013.6 0.0
13/11:00pm 12.9 6.1 -2.2 35 6.2 W 24 35 13 19 1015.1 1013.6 0.0
13/10:30pm 13.2 4.6 -2.3 34 6.3 W 33 44 18 24 1014.5 1012.9 0.0
13/10:00pm 13.6 5.2 -2.3 33 6.5 WNW 32 43 17 23 1014.4 1012.8 0.0
13/09:33pm 13.9 5.0 -2.1 33 6.6 W 35 54 19 29 1014.0 1012.4 0.0
13/09:30pm 13.7 5.1 -2.3 33 6.6 W 33 48 18 26 1014.1 1012.5 0.0
13/09:00pm 14.1 6.5 -2.3 32 6.8 WNW 28 43 15 23 1013.7 1012.1 0.0
13/08:44pm 14.4 6.4 -2.1 32 6.9 WNW 30 48 16 26 1013.4 1011.9 0.0
13/08:30pm 14.6 7.4 -2.3 31 7.0 WNW 26 41 14 22 1013.2 1011.7 0.0
13/08:00pm 15.0 6.0 -2.4 30 7.2 WNW 35 57 19 31 1012.5 1010.9 0.0
13/07:48pm 15.3 7.3 -2.2 30 7.3 WNW 30 52 16 28 1012.5 1010.9 0.0
13/07:30pm 15.5 8.3 -2.4 29 7.5 WNW 26 43 14 23 1012.8 1011.2 0.0
13/07:00pm 16.6 8.6 -2.5 27 8.1 WNW 30 48 16 26 1012.2 1010.6 0.0
13/06:32pm 17.3 8.8 -2.9 25 8.5 WNW 32 54 17 29 1011.4 1009.8 0.0
13/06:30pm 17.6 9.6 -2.6 25 8.6 WNW 30 44 16 24 1011.5 1009.9 0.0
13/06:03pm 18.3 9.2 -3.2 23 9.1 WNW 35 54 19 29 1011.1 1009.5 0.0
13/06:00pm 18.0 8.9 -3.4 23 9.0 WNW 35 54 19 29 1011.2 1009.6 0.0
13/05:53pm 18.2 8.3 -3.8 22 9.2 WNW 39 57 21 31 1011.3 1009.7 0.0
13/05:30pm 18.1 8.1 -4.5 21 9.3 W 39 57 21 31 1010.8 1009.2 0.0
13/05:21pm 18.9 9.3 -4.5 20 9.7 WNW 37 56 20 30 1010.8 1009.2 0.0
13/05:00pm 19.1 9.8 -5.0 19 9.9 WNW 35 50 19 27 1010.6 1009.0 0.0
13/04:32pm 19.6 10.9 -5.3 18 10.2 WNW 32 52 17 28 1010.5 1008.9 0.0
13/04:30pm 19.7 10.9 -6.0 17 10.4 WNW 32 50 17 27 1010.5 1008.9 0.0
13/04:23pm 19.2 9.1 -5.7 18 10.1 WNW 39 57 21 31 1010.6 1009.0 0.0
13/04:00pm 19.9 10.2 -5.8 17 10.5 WNW 37 54 20 29 1010.6 1009.0 0.0
13/03:46pm 19.8 10.4 -6.7 16 10.6 W 35 54 19 29 1010.8 1009.2 0.0
13/03:30pm 19.8 10.8 -6.7 16 10.6 WNW 33 48 18 26 1011.0 1009.4 0.0
13/03:05pm 19.2 10.8 -6.4 17 10.2 WNW 30 48 16 26 1011.2 1009.6 0.0
13/03:00pm 19.9 11.1 -6.6 16 10.6 WNW 32 48 17 26 1011.1 1009.5 0.0
13/02:46pm 18.8 10.7 -6.7 17 10.1 WNW 28 46 15 25 1011.1 1009.5 0.0
13/02:30pm 19.0 10.1 -7.4 16 10.3 WNW 32 43 17 23 1011.4 1009.8 0.0
13/02:10pm 18.4 10.0 -5.6 19 9.7 W 30 48 16 26 1012.0 1010.4 0.0
13/02:00pm 18.5 9.7 -6.2 18 9.8 W 32 44 17 24 1012.0 1010.4 0.0
13/01:42pm 18.8 9.8 -6.0 18 9.9 WNW 33 48 18 26 1012.3 1010.7 0.0
13/01:40pm 18.3 9.3 -6.4 18 9.8 NW 33 48 18 26 1012.2 1010.6 0.0
13/01:30pm 18.1 9.7 -5.9 19 9.6 WNW 30 46 16 25 1012.4 1010.8 0.0
13/01:00pm 16.3 8.5 -8.0 18 9.1 WNW 26 43 14 23 1012.9 1011.3 0.0
13/12:30pm 16.8 8.3 -6.9 19 9.1 W 30 44 16 24 1012.9 1011.3 0.0
13/12:00pm 16.9 10.2 -7.5 18 9.3 WNW 20 30 11 16 1013.3 1011.8 0.0
13/11:30am 16.5 10.5 -6.5 20 8.9 W 17 30 9 16 1013.6 1012.0 0.0
13/11:00am 15.7 10.5 -5.9 22 8.4 WSW 13 26 7 14 1013.8 1012.2 0.0
13/10:30am 13.9 7.5 -6.9 23 7.8 WSW 19 26 10 14 1013.8 1012.2 0.0
13/10:00am 13.4 7.0 -6.7 24 7.5 W 19 30 10 16 1013.8 1012.2 0.0
13/09:30am 12.4 5.6 -5.6 28 6.8 W 22 35 12 19 1013.7 1012.1 0.0
13/09:00am 11.7 5.3 -5.3 30 6.4 W 20 30 11 16 1013.7 1012.1 0.0
13/08:30am 10.8 3.2 -5.2 32 6.0 W 26 35 14 19 1013.1 1011.5 0.0
13/08:00am 10.6 4.0 -3.5 37 5.5 W 22 33 12 18 1013.2 1011.7 0.0
13/07:30am 9.2 3.7 -2.4 44 4.5 W 17 24 9 13 1013.2 1011.7 0.0
13/07:00am 8.5 2.5 -1.9 48 4.1 W 20 28 11 15 1012.7 1011.1 0.0
13/06:30am 8.1 2.1 -1.4 51 3.8 W 20 30 11 16 1012.2 1010.6 0.0
13/06:00am 7.8 2.4 -1.4 52 3.6 WNW 17 28 9 15 1011.9 1010.3 0.0
13/05:30am 8.3 1.5 -1.5 50 3.9 WNW 24 33 13 18 1010.9 1009.3 0.0
13/05:00am 8.7 2.3 -2.0 47 4.2 W 22 32 12 17 1011.0 1009.4 0.0
13/04:30am 9.3 1.7 -2.3 44 4.6 WNW 28 35 15 19 1010.5 1008.9 0.0
13/04:00am 9.7 2.8 -2.6 42 4.8 WNW 24 33 13 18 1010.7 1009.1 0.0
13/03:30am 10.1 3.5 -2.9 40 5.1 WNW 22 30 12 16 1010.8 1009.2 0.0
13/03:00am 10.0 4.0 -3.3 39 5.2 W 19 24 10 13 1010.8 1009.2 0.0
13/02:30am 10.4 4.3 -3.6 37 5.4 WNW 19 24 10 13 1010.7 1009.1 0.0
13/02:00am 10.4 5.1 -3.6 37 5.4 WNW 15 20 8 11 1010.7 1009.1 0.0
13/01:30am 11.0 5.3 -3.8 35 5.7 WNW 17 20 9 11 1010.8 1009.2 0.0
13/01:00am 11.2 5.8 -4.1 34 5.9 WNW 15 20 8 11 1010.8 1009.2 0.0
13/12:30am 11.6 7.0 -4.1 33 6.1 W 11 15 6 8 1010.9 1009.3 0.0
13/12:00am 12.4 7.0 -4.2 31 6.5 W 15 19 8 10 1010.9 1009.3 0.0
 
Date/Time
EDT
Temp
°C
App
Temp
°C
Dew
Point
°C
Rel
Hum
%
Delta-T
°C
Wind Press
QNH
hPa
Press
MSL
hPa
Rain since
9am
mm
Dir  Spd
km/h
Gust
km/h
Spd
kts
Gust
kts
12/11:30pm 13.0 5.9 -4.1 30 6.7 W 24 39 13 21 1010.9 1009.3 0.0

Other formats

Comma delimited format used in spreadsheet applications
http://www.bom.gov.au/fwo/IDN60801/IDN60801.94943.axf

JavaScript Object Notation format (JSON) in row-major order
http://www.bom.gov.au/fwo/IDN60801/IDN60801.94943.json

Data quality

Most of these data are generated automatically and are frequently updated. Quality checks on data are not normally performed. It is possible for incorrect values to appear. Refer to information at About Latest Weather Observations and please check the disclaimer before using these data.